Time;durP1;ratioP1;P1;durP2;ratioP2;P2;SDS_P1;SDS_P2;PMS_P1;PMS_P2;Temp;Humidity;BMP_temperature;BMP_pressure;BME280_temperature;BME280_humidity;BME280_pressure;Samples;Min_cycle;Max_cycle;Signal;HPM_P1;HPM_P2
2023/02/17 00:01:30;;;;;;;79.20;49.65;;;;;;;1.64;100.00;101101.16;5057438;28;20419;-77
2023/02/17 00:03:56;;;;;;;81.32;49.67;;;;;;;1.30;100.00;101071.00;5074148;28;20032;-77
2023/02/17 00:06:25;;;;;;;75.50;44.28;;;;;;;1.57;100.00;101151.88;5056342;28;20059;-76
2023/02/17 00:08:51;;;;;;;68.82;43.20;;;;;;;1.29;100.00;101070.16;5074410;28;20082;-78
2023/02/17 00:11:18;;;;;;;67.32;41.42;;;;;;;1.63;100.00;101164.59;5074162;28;20505;-78
2023/02/17 00:13:44;;;;;;;60.10;38.92;;;;;;;1.93;100.00;101152.00;5056577;28;20178;-77
2023/02/17 00:16:15;;;;;;;63.53;39.83;;;;;;;1.20;100.00;101169.22;5056509;28;20127;-77
2023/02/17 00:18:40;;;;;;;66.32;41.03;;;;;;;1.64;100.00;101134.53;5074421;28;20032;-77
2023/02/17 00:21:13;;;;;;;62.95;39.13;;;;;;;1.61;100.00;101154.53;5074277;28;20540;-77
2023/02/17 00:23:38;;;;;;;56.08;37.70;;;;;;;1.27;100.00;101090.97;5055727;28;20418;-77
2023/02/17 00:26:05;;;;;;;58.83;36.03;;;;;;;0.81;100.00;101087.16;5073702;28;20028;-77
2023/02/17 00:28:30;;;;;;;59.72;38.67;;;;;;;1.36;100.00;101147.16;5056256;28;20215;-78
2023/02/17 00:30:56;;;;;;;60.72;38.35;;;;;;;1.20;100.00;101137.50;5074172;28;20471;-77
2023/02/17 00:33:21;;;;;;;60.70;36.42;;;;;;;1.43;100.00;101083.03;5074456;28;20387;-78
2023/02/17 00:35:47;;;;;;;56.75;36.30;;;;;;;0.94;100.00;101115.88;5073863;28;20506;-77
2023/02/17 00:38:12;;;;;;;63.88;34.75;;;;;;;1.11;100.00;101074.66;5056362;28;20086;-77
2023/02/17 00:40:37;;;;;;;57.85;35.08;;;;;;;1.50;100.00;101124.97;5055771;28;20032;-73
2023/02/17 00:43:03;;;;;;;54.85;34.30;;;;;;;1.01;100.00;101079.38;5073045;28;20529;-76
2023/02/17 00:45:28;;;;;;;54.40;32.67;;;;;;;1.35;100.00;101115.38;5073621;28;20111;-77
2023/02/17 00:47:54;;;;;;;54.85;32.80;;;;;;;1.46;100.00;101114.03;5073956;28;20132;-76
2023/02/17 00:50:19;;;;;;;52.50;32.65;;;;;;;1.38;100.00;101105.47;5073654;28;20043;-76
2023/02/17 00:52:44;;;;;;;52.47;32.90;;;;;;;1.02;100.00;101056.03;5073149;28;20032;-76
2023/02/17 00:55:10;;;;;;;46.30;30.08;;;;;;;1.05;100.00;101104.50;5055347;28;20080;-76
2023/02/17 00:57:35;;;;;;;48.55;30.17;;;;;;;0.70;100.00;101020.09;5055478;28;20079;-77
2023/02/17 01:00:01;;;;;;;53.67;30.40;;;;;;;1.14;100.00;101103.94;5073545;28;20032;-77
2023/02/17 01:02:26;;;;;;;52.15;30.67;;;;;;;0.99;100.00;101108.53;5072456;28;20064;-77
2023/02/17 01:04:52;;;;;;;44.42;28.85;;;;;;;1.49;100.00;101089.06;5073123;28;20071;-76
2023/02/17 01:07:18;;;;;;;46.75;29.80;;;;;;;1.23;100.00;101096.69;5054719;28;20081;-77
2023/02/17 01:09:43;;;;;;;46.42;28.67;;;;;;;1.12;100.00;101093.03;5072542;28;20036;-76
2023/02/17 01:12:11;;;;;;;48.53;30.10;;;;;;;1.01;100.00;101050.16;5072495;28;20037;-76
2023/02/17 01:14:36;;;;;;;45.63;28.15;;;;;;;0.62;100.00;101039.91;5073116;28;20064;-75
2023/02/17 01:17:02;;;;;;;44.67;29.35;;;;;;;0.81;100.00;101024.59;5072003;28;20071;-75
2023/02/17 01:19:27;;;;;;;47.42;30.13;;;;;;;1.04;100.00;101072.78;5072805;28;20039;-75
2023/02/17 01:21:53;;;;;;;48.13;30.35;;;;;;;0.84;100.00;101068.88;5072023;28;20109;-76
2023/02/17 01:24:18;;;;;;;48.80;31.23;;;;;;;0.81;100.00;101058.81;5072559;28;20028;-76
2023/02/17 01:26:44;;;;;;;48.13;29.48;;;;;;;0.87;100.00;101058.97;5054721;28;20128;-76
2023/02/17 01:29:09;;;;;;;52.60;33.63;;;;;;;0.96;100.00;101061.72;5071943;28;20132;-75
2023/02/17 01:31:35;;;;;;;54.30;33.25;;;;;;;0.60;100.00;101001.50;5072054;28;20035;-76
2023/02/17 01:34:02;;;;;;;52.90;32.40;;;;;;;0.73;100.00;100995.19;5072661;28;20064;-75
2023/02/17 01:36:28;;;;;;;52.95;30.38;;;;;;;0.51;100.00;101033.75;5072114;28;20028;-76
2023/02/17 01:38:54;;;;;;;44.25;27.50;;;;;;;1.13;100.00;101032.97;5071673;28;20028;-77
2023/02/17 01:41:25;;;;;;;43.58;27.60;;;;;;;0.82;100.00;100985.41;5072011;28;20035;-76
2023/02/17 01:44:23;;;;;;;46.67;28.27;;;;;;;0.73;100.00;101046.03;5072289;28;20033;-76
2023/02/17 01:46:50;;;;;;;40.78;26.98;;;;;;;1.04;100.00;101034.41;5072759;28;20036;-76
2023/02/17 01:49:22;;;;;;;44.03;28.00;;;;;;;0.85;100.00;101038.06;5054022;28;20410;-76
2023/02/17 01:51:53;;;;;;;44.78;29.75;;;;;;;0.50;100.00;100953.66;5072269;28;20542;-75
2023/02/17 01:54:25;;;;;;;47.50;30.15;;;;;;;0.64;100.00;100992.41;5070280;28;20032;-76
2023/02/17 01:56:51;;;;;;;50.72;32.92;;;;;;;1.04;100.00;101032.75;5071569;28;20063;-75
2023/02/17 01:59:20;;;;;;;47.75;30.80;;;;;;;0.65;100.00;101026.63;5071554;28;20514;-75
2023/02/17 02:01:48;;;;;;;47.80;30.67;;;;;;;0.92;100.00;101019.91;5071591;28;20032;-76
2023/02/17 02:04:16;;;;;;;47.95;29.63;;;;;;;0.21;100.00;100991.97;5070671;28;20031;-75
2023/02/17 02:06:42;;;;;;;48.28;30.15;;;;;;;0.63;100.00;100968.22;5071178;28;20040;-75
2023/02/17 02:09:14;;;;;;;49.70;30.63;;;;;;;0.69;100.00;101016.75;5071281;28;20115;-75
2023/02/17 02:11:39;;;;;;;48.50;30.17;;;;;;;0.45;100.00;101013.56;5071981;28;20036;-76
2023/02/17 02:14:07;;;;;;;51.95;29.25;;;;;;;0.51;100.00;101017.88;5053623;28;20032;-76
2023/02/17 02:16:53;;;;;;;48.55;30.30;;;;;;;0.43;100.00;101000.16;5071604;28;20090;-74
2023/02/17 02:19:43;;;;;;;46.25;29.50;;;;;;;0.59;100.00;101019.81;5071399;28;20028;-75
2023/02/17 02:22:24;;;;;;;49.40;29.67;;;;;;;0.54;100.00;100982.94;5072056;28;20513;-75
2023/02/17 02:25:24;;;;;;;53.05;29.08;;;;;;;0.65;100.00;101024.13;5071406;28;20170;-75
2023/02/17 02:28:08;;;;;;;49.40;29.58;;;;;;;0.66;100.00;101026.69;5071733;28;20029;-76
2023/02/17 02:30:46;;;;;;;50.30;30.83;;;;;;;0.46;100.00;101024.41;5071975;28;20056;-75
2023/02/17 02:33:37;;;;;;;54.20;31.05;;;;;;;0.33;100.00;101034.84;5071700;28;20036;-76
2023/02/17 02:36:14;;;;;;;55.22;32.80;;;;;;;-0.06;100.00;100979.53;5067507;28;20056;-76
2023/02/17 02:38:53;;;;;;;47.08;30.48;;;;;;;-0.11;100.00;100929.41;5071704;28;20111;-76
2023/02/17 02:41:26;;;;;;;50.13;31.33;;;;;;;0.12;100.00;100996.72;5071173;28;20021;-75
2023/02/17 02:43:52;;;;;;;55.15;32.42;;;;;;;0.26;100.00;101035.47;5071812;28;20029;-76
2023/02/17 02:46:17;;;;;;;53.08;32.63;;;;;;;-0.20;100.00;100998.22;5071683;28;20379;-77
2023/02/17 02:48:44;;;;;;;52.22;32.03;;;;;;;0.23;100.00;101028.72;5071064;28;20031;-77
2023/02/17 02:51:12;;;;;;;51.60;32.20;;;;;;;0.22;100.00;101034.50;5070996;28;20036;-75
2023/02/17 02:53:48;;;;;;;49.92;32.47;;;;;;;0.40;100.00;101016.72;5071960;28;20121;-76
2023/02/17 02:56:35;;;;;;;48.53;31.88;;;;;;;0.31;100.00;101026.44;5053783;28;20072;-75
2023/02/17 02:59:03;;;;;;;54.75;32.78;;;;;;;0.23;100.00;101025.38;5071461;28;20029;-76
2023/02/17 03:01:58;;;;;;;52.13;33.78;;;;;;;0.36;100.00;101017.41;5053508;28;20128;-75
2023/02/17 03:04:35;;;;;;;51.58;31.73;;;;;;;0.36;100.00;101020.78;5071391;28;20094;-76
2023/02/17 03:07:23;;;;;;;50.20;31.35;;;;;;;-0.25;100.00;100930.63;5071260;28;20032;-77
2023/02/17 03:09:51;;;;;;;56.15;34.45;;;;;;;0.24;100.00;101022.09;5053734;28;20120;-77
2023/02/17 03:12:18;;;;;;;57.20;35.10;;;;;;;-0.09;100.00;100982.75;5071512;28;20091;-78
2023/02/17 03:14:43;;;;;;;57.65;36.13;;;;;;;0.17;100.00;101015.19;5071234;28;20025;-76
2023/02/17 03:17:09;;;;;;;56.25;34.45;;;;;;;0.09;100.00;101002.47;5071130;28;20037;-76
2023/02/17 03:19:35;;;;;;;58.38;36.22;;;;;;;0.05;100.00;101022.31;5053697;28;20028;-77
2023/02/17 03:22:06;;;;;;;60.50;36.88;;;;;;;-0.30;100.00;100971.25;5071356;28;20058;-76
2023/02/17 03:24:33;;;;;;;45.63;27.73;;;;;;;-0.18;100.00;100962.47;5075554;28;20051;-76
2023/02/17 03:26:59;;;;;;;61.22;36.95;;;;;;;0.05;100.00;101023.16;5070780;28;20430;-76
2023/02/17 03:29:24;;;;;;;60.55;36.92;;;;;;;-0.41;100.00;100973.41;5070674;28;20028;-76
2023/02/17 03:31:50;;;;;;;63.50;38.50;;;;;;;-0.08;100.00;101004.44;5053443;28;20033;-76
2023/02/17 03:34:15;;;;;;;62.83;37.75;;;;;;;-0.37;100.00;100965.22;5070959;28;20028;-76
2023/02/17 03:36:40;;;;;;;63.75;38.83;;;;;;;-0.65;100.00;100949.31;5070961;28;20040;-75
2023/02/17 03:39:06;;;;;;;66.45;39.03;;;;;;;-0.45;100.00;100948.28;5071676;28;20017;-76
2023/02/17 03:41:31;;;;;;;69.15;42.13;;;;;;;-0.09;100.00;101010.25;5073348;28;20033;-77
2023/02/17 03:43:57;;;;;;;73.43;46.08;;;;;;;-0.59;100.00;100950.34;5083361;28;20036;-76
2023/02/17 03:46:22;;;;;;;69.13;44.50;;;;;;;-0.72;100.00;100978.22;5057183;28;20058;-76
2023/02/17 03:48:48;;;;;;;69.10;41.50;;;;;;;-0.82;100.00;100975.34;5074513;28;20078;-76
2023/02/17 03:51:20;;;;;;;66.13;38.75;;;;;;;-0.18;100.00;101004.94;5074573;28;20062;-74
2023/02/17 03:53:46;;;;;;;68.68;42.45;;;;;;;-0.91;100.00;100960.91;5074433;28;20066;-76
2023/02/17 03:56:13;;;;;;;64.57;39.83;;;;;;;-0.34;100.00;101006.94;5056342;28;20041;-77
2023/02/17 03:58:39;;;;;;;63.00;38.40;;;;;;;0.00;100.00;101008.00;5074625;28;20033;-76
2023/02/17 04:01:06;;;;;;;61.35;38.55;;;;;;;-0.01;100.00;101002.97;5073731;28;20464;-75
2023/02/17 04:03:33;;;;;;;59.35;37.13;;;;;;;-0.43;100.00;100989.13;5056318;28;20123;-76
2023/02/17 04:05:58;;;;;;;67.07;41.00;;;;;;;-0.12;100.00;100992.66;5076761;28;20132;-75
2023/02/17 04:08:24;;;;;;;62.80;39.50;;;;;;;-0.35;100.00;100957.75;5090533;28;20087;-77
2023/02/17 04:10:54;;;;;;;63.22;39.42;;;;;;;-0.66;100.00;100927.63;5077633;28;20029;-74
2023/02/17 04:13:19;;;;;;;61.40;38.55;;;;;;;-0.18;100.00;100991.63;5092843;28;20096;-76
2023/02/17 04:15:45;;;;;;;62.00;38.60;;;;;;;-0.09;100.00;100912.81;5073629;28;20028;-76
2023/02/17 04:18:10;;;;;;;61.45;38.72;;;;;;;-0.02;100.00;100988.81;5056050;28;20020;-75
2023/02/17 04:20:35;;;;;;;61.63;38.92;;;;;;;0.09;100.00;100972.47;5073353;28;20499;-76
2023/02/17 04:23:01;;;;;;;64.90;40.28;;;;;;;-0.26;100.00;100988.03;5073254;28;20040;-77
2023/02/17 04:25:26;;;;;;;65.85;39.53;;;;;;;-0.15;100.00;100992.56;5078893;28;20024;-75
2023/02/17 04:27:52;;;;;;;63.40;39.40;;;;;;;-0.54;100.00;100928.88;5075090;28;20039;-75
2023/02/17 04:30:17;;;;;;;68.15;39.58;;;;;;;-0.18;100.00;100974.16;5073678;28;20029;-76
2023/02/17 04:32:42;;;;;;;68.68;40.53;;;;;;;-0.29;100.00;100980.44;5073086;28;20638;-74
2023/02/17 04:35:08;;;;;;;92.70;53.90;;;;;;;-0.60;100.00;100935.31;5073138;28;20033;-77
2023/02/17 04:37:33;;;;;;;82.18;50.50;;;;;;;-0.40;100.00;100991.75;5055649;28;20028;-74
2023/02/17 04:39:59;;;;;;;76.30;45.83;;;;;;;0.30;100.00;100997.28;5073144;28;20078;-77
2023/02/17 04:42:24;;;;;;;89.70;49.72;;;;;;;-0.05;100.00;100983.69;5055496;28;20071;-78
2023/02/17 04:44:50;;;;;;;98.07;60.42;;;;;;;-0.05;100.00;100989.56;5073844;28;20094;-76
2023/02/17 04:47:15;;;;;;;93.25;57.45;;;;;;;0.15;100.00;100991.78;5055352;28;20058;-77
2023/02/17 04:49:40;;;;;;;82.20;50.70;;;;;;;-0.08;100.00;100933.66;5073406;28;20028;-77
2023/02/17 04:52:06;;;;;;;82.60;48.35;;;;;;;0.21;100.00;100970.34;5072735;28;20459;-77
2023/02/17 04:54:31;;;;;;;74.95;47.47;;;;;;;-0.37;100.00;100946.88;4719445;28;10000056;-80
2023/02/17 04:56:56;;;;;;;87.10;50.25;;;;;;;-0.34;100.00;100991.94;5071114;28;20048;-81
2023/02/17 04:59:22;;;;;;;89.45;53.00;;;;;;;-0.62;100.00;101005.19;5072393;28;20340;-78
2023/02/17 05:01:47;;;;;;;84.13;51.58;;;;;;;-0.75;100.00;100968.13;5072405;28;20035;-76
2023/02/17 05:04:17;;;;;;;89.38;51.83;;;;;;;-1.09;100.00;100945.34;5072173;28;20115;-77
2023/02/17 05:06:42;;;;;;;87.93;50.97;;;;;;;-0.63;100.00;100980.13;5054582;28;20056;-78
2023/02/17 05:09:07;;;;;;;85.63;51.50;;;;;;;-1.13;100.00;100951.03;5072374;28;20033;-76
2023/02/17 05:11:33;;;;;;;81.43;49.83;;;;;;;-0.41;100.00;100952.56;5071776;28;20021;-78
2023/02/17 05:13:58;;;;;;;87.45;48.35;;;;;;;-0.55;100.00;100937.16;5053976;28;20039;-79
2023/02/17 05:16:24;;;;;;;97.95;53.17;;;;;;;-1.15;100.00;100948.47;5071813;28;20024;-76
2023/02/17 05:18:49;;;;;;;73.22;41.67;;;;;;;-1.34;100.00;100911.22;5072604;28;20040;-75
2023/02/17 05:21:15;;;;;;;58.88;36.25;;;;;;;-1.55;100.00;100976.94;5072312;28;20052;-77
2023/02/17 05:23:40;;;;;;;58.65;37.40;;;;;;;-1.57;100.00;101026.72;5072464;28;20127;-80
2023/02/17 05:26:09;;;;;;;60.33;37.38;;;;;;;-1.34;100.00;101027.56;5054984;28;20047;-81
2023/02/17 05:28:36;;;;;;;59.65;36.90;;;;;;;-1.09;100.00;101045.13;5072117;28;20517;-79
2023/02/17 05:31:03;;;;;;;81.38;42.30;;;;;;;-2.06;100.00;100979.16;5072282;28;20119;-79
2023/02/17 05:33:29;;;;;;;73.80;41.20;;;;;;;-1.15;100.00;101025.78;5077675;28;20039;-79
2023/02/17 05:35:54;;;;;;;77.82;43.05;;;;;;;-1.85;100.00;100970.03;5047934;28;20024;-80
2023/02/17 05:38:20;;;;;;;71.65;41.90;;;;;;;-1.08;100.00;101016.88;5037997;28;20029;-78
2023/02/17 05:40:45;;;;;;;81.75;43.63;;;;;;;-0.56;100.00;100970.44;5052034;28;20028;-78
2023/02/17 05:43:11;;;;;;;79.00;46.08;;;;;;;0.13;100.00;101010.91;5054130;28;20037;-71
2023/02/17 05:45:36;;;;;;;87.32;49.60;;;;;;;-0.30;100.00;101013.72;5072759;28;20552;-78
2023/02/17 05:48:02;;;;;;;71.57;43.10;;;;;;;-0.43;100.00;101017.47;5072360;28;20016;-79
2023/02/17 05:50:30;;;;;;;66.55;39.70;;;;;;;1.25;100.00;101010.78;5072734;28;20396;-80
2023/02/17 05:52:56;;;;;;;72.15;43.50;;;;;;;2.54;100.00;100945.25;5054677;28;20578;-79
2023/02/17 05:55:21;;;;;;;74.80;44.10;;;;;;;2.80;100.00;100978.41;5070805;28;20117;-80
2023/02/17 05:57:47;;;;;;;75.75;46.55;;;;;;;3.20;100.00;101042.78;5072365;28;20029;-79
2023/02/17 06:00:13;;;;;;;73.32;43.45;;;;;;;4.01;100.00;101060.97;5054711;28;20032;-80
2023/02/17 06:02:39;;;;;;;68.60;45.00;;;;;;;3.95;100.00;101060.84;5072508;28;20100;-82
2023/02/17 06:05:06;;;;;;;162.23;102.60;;;;;;;3.68;100.00;101035.28;5072643;28;20056;-81
2023/02/17 06:07:34;;;;;;;73.03;47.03;;;;;;;2.59;100.00;101015.63;5073545;28;20029;-83
2023/02/17 06:10:00;;;;;;;95.30;64.15;;;;;;;4.15;100.00;101065.41;5054869;28;20032;-81
2023/02/17 06:12:25;;;;;;;97.07;61.83;;;;;;;3.94;100.00;101026.50;5072235;28;20032;-81
2023/02/17 06:14:59;;;;;;;74.40;44.47;;;;;;;3.54;100.00;101023.28;5072664;28;20059;-80
2023/02/17 06:17:38;;;;;;;80.75;48.75;;;;;;;2.80;100.00;101028.59;5055712;28;20466;-80
2023/02/17 06:20:11;;;;;;;77.13;46.72;;;;;;;4.23;100.00;101085.63;5073083;28;20020;-82
2023/02/17 06:22:46;;;;;;;74.43;46.72;;;;;;;3.79;100.00;101038.78;5055297;28;20032;-82
2023/02/17 06:25:12;;;;;;;109.65;66.68;;;;;;;5.19;100.00;101026.47;5070872;28;20499;-82
2023/02/17 06:27:37;;;;;;;94.85;60.92;;;;;;;5.28;100.00;101045.88;5072119;28;20036;-81
2023/02/17 06:30:03;;;;;;;104.60;62.35;;;;;;;5.49;100.00;101048.63;5072048;28;20024;-81
2023/02/17 06:32:29;;;;;;;99.75;57.85;;;;;;;6.19;100.00;101099.72;5054149;28;20043;-79
2023/02/17 06:34:54;;;;;;;84.40;53.28;;;;;;;5.80;100.00;101054.78;5071724;28;20044;-82
2023/02/17 06:37:19;;;;;;;83.90;52.28;;;;;;;6.00;100.00;101119.75;5071260;28;20072;-79
2023/02/17 06:39:45;;;;;;;83.60;54.03;;;;;;;4.09;100.00;101080.41;5072173;28;20166;-83
2023/02/17 06:42:10;;;;;;;92.47;57.28;;;;;;;2.96;100.00;101062.41;5071071;28;20086;-81
2023/02/17 06:44:36;;;;;;;110.05;69.93;;;;;;;3.21;100.00;101052.84;5072412;28;20025;-82
2023/02/17 06:47:01;;;;;;;86.90;57.70;;;;;;;3.53;100.00;101100.38;5072382;28;20509;-81
2023/02/17 06:49:26;;;;;;;89.07;55.70;;;;;;;2.69;100.00;101059.31;5072340;28;20021;-80
2023/02/17 06:51:54;;;;;;;85.68;55.13;;;;;;;3.60;100.00;101049.38;5054356;28;20032;-80
2023/02/17 06:54:19;;;;;;;83.55;54.28;;;;;;;4.05;100.00;101087.84;5053632;28;20025;-81
2023/02/17 06:56:45;;;;;;;81.05;52.25;;;;;;;3.50;100.00;101036.66;5071128;28;20056;-81
2023/02/17 06:59:10;;;;;;;85.82;52.55;;;;;;;4.46;100.00;101091.03;5053193;28;20028;-82
2023/02/17 07:01:36;;;;;;;83.35;55.08;;;;;;;4.34;100.00;101052.25;5071258;28;20032;-80
2023/02/17 07:04:01;;;;;;;86.80;55.35;;;;;;;4.63;100.00;101094.63;5070608;28;20083;-77
2023/02/17 07:06:27;;;;;;;83.65;55.78;;;;;;;3.63;100.00;101093.00;5054020;28;20082;-76
2023/02/17 07:08:53;;;;;;;89.63;59.13;;;;;;;3.58;100.00;101049.34;5071602;28;20064;-77
2023/02/17 07:11:19;;;;;;;96.18;64.22;;;;;;;4.83;100.00;101094.03;5071681;28;20063;-76
2023/02/17 07:13:44;;;;;;;110.78;72.78;;;;;;;5.01;100.00;101075.81;5070877;28;20033;-75
2023/02/17 07:16:12;;;;;;;99.75;67.15;;;;;;;4.09;100.00;101049.34;5073608;28;20052;-78
2023/02/17 07:18:38;;;;;;;95.55;64.28;;;;;;;5.10;100.00;101086.00;5074891;28;20037;-78
2023/02/17 07:21:05;;;;;;;88.95;59.67;;;;;;;5.42;100.00;101083.84;5074930;28;20024;-79
2023/02/17 07:23:30;;;;;;;76.90;49.35;;;;;;;3.50;100.00;101096.97;5075186;28;20115;-77
2023/02/17 07:26:01;;;;;;;76.75;49.33;;;;;;;4.31;100.00;101091.63;5056846;28;20189;-77
2023/02/17 07:28:26;;;;;;;83.45;50.92;;;;;;;5.00;100.00;101079.16;5057250;28;20032;-78
2023/02/17 07:30:51;;;;;;;78.22;49.90;;;;;;;4.86;100.00;101017.69;5073835;28;20043;-77
2023/02/17 07:33:17;;;;;;;62.63;40.83;;;;;;;4.85;100.00;101086.53;5075193;28;20021;-77
2023/02/17 07:35:42;;;;;;;58.10;37.55;;;;;;;4.80;100.00;101057.91;5075170;28;20158;-78
2023/02/17 07:38:09;;;;;;;71.55;50.90;;;;;;;4.86;100.00;101105.84;5073966;28;20041;-77
2023/02/17 07:40:34;;;;;;;57.40;38.88;;;;;;;4.72;100.00;101037.66;5075053;28;20119;-78
2023/02/17 07:43:00;;;;;;;52.17;37.47;;;;;;;5.12;100.00;101087.72;5075056;28;20419;-77
2023/02/17 07:45:25;;;;;;;60.38;40.88;;;;;;;4.89;100.00;101048.78;5073561;28;20040;-77
2023/02/17 07:47:51;;;;;;;55.83;37.28;;;;;;;5.20;100.00;101092.84;5073819;28;20060;-77
2023/02/17 07:50:16;;;;;;;52.85;36.88;;;;;;;5.15;100.00;101074.31;5074973;28;20025;-78
2023/02/17 07:52:42;;;;;;;56.28;37.72;;;;;;;4.77;100.00;101037.72;5074962;28;20111;-79
2023/02/17 07:55:07;;;;;;;53.38;36.83;;;;;;;5.45;100.00;101033.47;5075147;28;20045;-79
2023/02/17 07:57:32;;;;;;;55.45;38.00;;;;;;;5.17;100.00;101086.09;5076879;28;20040;-80
2023/02/17 07:59:58;;;;;;;55.25;36.97;;;;;;;5.59;100.00;101069.72;5076793;28;20133;-82
2023/02/17 08:02:23;;;;;;;54.40;37.63;;;;;;;5.44;100.00;101026.72;5094686;28;20470;-79
2023/02/17 08:04:50;;;;;;;49.80;35.85;;;;;;;4.97;100.00;101072.41;5094811;28;20469;-83
2023/02/17 08:07:16;;;;;;;56.83;36.75;;;;;;;5.79;100.00;101021.16;5076941;28;20063;-82
2023/02/17 08:15:10;;;;;;;54.60;36.50;;;;;;;5.59;100.00;101075.63;5094586;28;20113;-79
2023/02/17 08:17:36;;;;;;;53.72;35.92;;;;;;;5.74;100.00;101014.38;5094923;28;20031;-79
2023/02/17 08:20:02;;;;;;;53.13;34.63;;;;;;;5.61;100.00;101052.91;5094173;28;20028;-79
2023/02/17 08:22:27;;;;;;;54.22;38.08;;;;;;;5.50;100.00;100943.56;5076881;28;20035;-79
2023/02/17 08:24:53;;;;;;;55.70;37.25;;;;;;;6.29;100.00;101015.63;5095025;28;20024;-79
2023/02/17 08:27:18;;;;;;;56.05;36.38;;;;;;;6.17;100.00;101071.94;5094376;28;20034;-79
2023/02/17 08:29:44;;;;;;;51.47;36.17;;;;;;;6.75;100.00;101074.03;5094736;28;20028;-80
2023/02/17 08:32:17;;;;;;;54.45;36.78;;;;;;;6.87;100.00;101051.31;5093369;28;20043;-78
2023/02/17 08:34:42;;;;;;;53.17;35.45;;;;;;;5.60;100.00;100991.56;5076046;28;20086;-76
2023/02/17 08:37:09;;;;;;;51.42;35.17;;;;;;;6.97;100.00;101065.66;5093566;28;20055;-78
2023/02/17 08:39:35;;;;;;;48.78;34.75;;;;;;;6.64;100.00;101070.56;5075828;28;20057;-78
2023/02/17 08:42:02;;;;;;;59.55;36.88;;;;;;;6.80;100.00;101069.81;5064698;28;20036;-78
2023/02/17 08:44:28;;;;;;;50.85;35.10;;;;;;;6.59;100.00;101016.66;5055696;28;20037;-78
2023/02/17 08:46:54;;;;;;;53.30;35.28;;;;;;;7.28;100.00;101074.22;5073271;28;20021;-80
2023/02/17 08:49:22;;;;;;;50.50;33.58;;;;;;;7.08;100.00;101068.25;5055745;28;20043;-78
2023/02/17 08:51:49;;;;;;;47.92;34.60;;;;;;;6.97;100.00;101075.78;5055485;28;20124;-79
2023/02/17 08:54:15;;;;;;;53.95;34.53;;;;;;;6.86;100.00;101011.72;5073397;28;20036;-78
2023/02/17 08:56:41;;;;;;;51.90;35.22;;;;;;;7.81;100.00;101075.16;5073101;28;20045;-78
2023/02/17 08:59:08;;;;;;;49.78;35.22;;;;;;;7.26;100.00;101077.56;5055173;28;20117;-76
2023/02/17 09:01:35;;;;;;;52.92;36.33;;;;;;;7.32;100.00;101075.94;5055186;28;20116;-78
2023/02/17 09:04:06;;;;;;;52.03;37.25;;;;;;;8.09;100.00;101070.97;5055958;28;20038;-78
2023/02/17 09:06:47;;;;;;;69.83;40.93;;;;;;;7.97;100.00;101081.09;5055925;28;20210;-79
2023/02/17 09:09:14;;;;;;;52.90;36.08;;;;;;;7.42;100.00;101036.31;5053064;28;20072;-78
2023/02/17 09:11:40;;;;;;;55.08;37.30;;;;;;;8.27;100.00;101078.56;5073633;28;20021;-79
2023/02/17 09:14:06;;;;;;;65.97;40.80;;;;;;;8.28;100.00;101026.25;5073553;28;20035;-79
2023/02/17 09:16:31;;;;;;;59.65;39.33;;;;;;;8.20;100.00;101040.56;5072790;28;20082;-78
2023/02/17 09:18:57;;;;;;;60.10;40.25;;;;;;;8.64;100.00;101070.06;5054865;28;20025;-79
2023/02/17 09:21:22;;;;;;;52.25;38.08;;;;;;;8.60;100.00;101081.06;5072804;28;20025;-78
2023/02/17 09:23:48;;;;;;;49.85;34.83;;;;;;;8.55;100.00;101077.69;5072481;28;20491;-78
2023/02/17 09:26:15;;;;;;;53.22;36.60;;;;;;;8.28;100.00;101028.78;5072530;28;20537;-78
2023/02/17 09:28:41;;;;;;;51.83;35.65;;;;;;;8.65;100.00;101046.41;5073139;28;20040;-78
2023/02/17 09:31:12;;;;;;;53.28;36.33;;;;;;;9.55;100.00;101072.19;5072900;28;20404;-79
2023/02/17 09:33:39;;;;;;;52.00;36.10;;;;;;;8.93;100.00;101081.81;5072838;28;20526;-77
2023/02/17 09:36:06;;;;;;;50.83;34.60;;;;;;;9.61;100.00;101065.38;5054933;28;20040;-76
2023/02/17 09:38:31;;;;;;;51.67;34.40;;;;;;;10.13;100.00;101043.00;5071946;28;20035;-79
2023/02/17 09:41:07;;;;;;;49.95;35.60;;;;;;;9.76;100.00;101061.06;5072829;28;20111;-79
2023/02/17 09:43:32;;;;;;;49.13;33.50;;;;;;;9.92;100.00;101058.41;5072345;28;20414;-78
2023/02/17 09:46:06;;;;;;;47.55;29.80;;;;;;;9.56;100.00;101018.91;5072861;28;20024;-77
2023/02/17 09:48:34;;;;;;;43.40;30.58;;;;;;;9.93;100.00;101056.69;5054908;28;20038;-78
2023/02/17 09:51:14;;;;;;;44.22;29.40;;;;;;;9.46;100.00;101068.03;5054738;28;20025;-79
2023/02/17 09:53:51;;;;;;;45.95;29.15;;;;;;;9.92;100.00;101073.63;5054501;28;20035;-80
2023/02/17 09:56:28;;;;;;;40.58;29.60;;;;;;;10.29;100.00;101019.13;5072481;28;20028;-80
2023/02/17 09:58:58;;;;;;;40.35;28.92;;;;;;;10.64;100.00;101066.19;5072890;28;20040;-80
2023/02/17 10:01:31;;;;;;;43.65;28.52;;;;;;;9.98;100.00;101006.69;5072470;28;20039;-80
2023/02/17 10:04:13;;;;;;;42.10;27.85;;;;;;;10.25;100.00;101067.44;5071635;28;20036;-78
2023/02/17 10:07:04;;;;;;;42.15;30.52;;;;;;;10.26;100.00;101034.38;5054864;28;20071;-78
2023/02/17 10:09:36;;;;;;;41.28;29.25;;;;;;;10.37;100.00;101045.31;5054786;28;20124;-79
2023/02/17 10:12:08;;;;;;;37.97;26.20;;;;;;;10.15;100.00;101046.38;5054385;28;20035;-77
2023/02/17 10:15:02;;;;;;;36.88;26.27;;;;;;;10.81;100.00;101021.94;5054121;28;20078;-77
2023/02/17 10:17:45;;;;;;;40.40;27.33;;;;;;;11.33;100.00;101030.56;5071942;28;20028;-79
2023/02/17 10:20:30;;;;;;;36.20;26.00;;;;;;;10.77;100.00;100984.69;5054095;28;21369;-78
2023/02/17 10:23:06;;;;;;;34.83;26.15;;;;;;;11.00;100.00;100975.03;5072224;28;20021;-78
2023/02/17 10:25:51;;;;;;;37.78;25.92;;;;;;;11.04;100.00;100968.19;5054766;28;20028;-80
2023/02/17 10:28:40;;;;;;;31.35;24.08;;;;;;;11.27;100.00;100968.69;5072467;28;20029;-77
2023/02/17 10:31:32;;;;;;;50.70;30.73;;;;;;;11.27;100.00;101019.59;5061249;28;20040;-78
2023/02/17 10:34:02;;;;;;;37.63;24.63;;;;;;;11.38;100.00;101011.84;5020615;28;20049;-81
2023/02/17 10:36:34;;;;;;;41.45;27.50;;;;;;;12.13;100.00;101010.63;5054698;28;20033;-79
2023/02/17 10:39:10;;;;;;;37.85;28.08;;;;;;;12.71;100.00;101001.03;5053824;28;20048;-80
2023/02/17 10:41:38;;;;;;;35.17;24.75;;;;;;;11.60;100.00;100958.00;5071783;28;20056;-81
2023/02/17 10:44:11;;;;;;;33.92;25.70;;;;;;;12.64;100.00;100996.03;5071678;28;20071;-81
2023/02/17 10:46:40;;;;;;;37.05;27.05;;;;;;;12.08;100.00;100944.44;5054165;28;20031;-79
2023/02/17 10:49:34;;;;;;;33.53;24.60;;;;;;;12.25;100.00;100994.25;5071218;28;20545;-79
2023/02/17 10:52:13;;;;;;;33.80;25.20;;;;;;;11.98;100.00;100993.88;5074598;28;20033;-80
2023/02/17 10:54:45;;;;;;;35.75;25.08;;;;;;;12.67;100.00;100989.19;5057763;28;20086;-80
2023/02/17 10:57:13;;;;;;;33.97;24.00;;;;;;;12.47;100.00;100985.34;5058030;28;20043;-80
2023/02/17 10:59:46;;;;;;;36.80;24.05;;;;;;;12.05;100.00;100952.16;5057453;28;20025;-80
2023/02/17 11:02:21;;;;;;;35.97;25.45;;;;;;;12.94;100.00;100977.56;5058205;28;20040;-81
2023/02/17 11:04:49;;;;;;;33.95;26.08;;;;;;;12.75;100.00;100976.28;5075735;28;20028;-81
2023/02/17 11:07:18;;;;;;;35.40;26.20;;;;;;;12.76;100.00;100917.53;5075845;28;20487;-79
2023/02/17 11:09:47;;;;;;;34.17;24.77;;;;;;;12.68;100.00;100969.59;5057672;28;20082;-79
2023/02/17 11:12:19;;;;;;;36.58;25.83;;;;;;;13.25;100.00;100919.84;5075432;28;20111;-79
2023/02/17 11:14:47;;;;;;;36.13;25.40;;;;;;;13.65;100.00;100973.38;5075223;28;20032;-82
2023/02/17 11:17:15;;;;;;;34.05;25.45;;;;;;;13.93;100.00;100974.38;5057305;28;20032;-80
2023/02/17 11:19:41;;;;;;;34.30;26.25;;;;;;;14.39;100.00;100969.75;5057681;28;20039;-80